createdAt,value
2023-03-03T00:01:48.638Z,64.07
2023-03-03T00:04:15.523Z,64.75
2023-03-03T00:06:42.363Z,64.75
2023-03-03T00:09:09.153Z,64.75
2023-03-03T00:11:36.032Z,64.79
2023-03-03T00:14:02.840Z,65.80
2023-03-03T00:16:39.692Z,64.95
2023-03-03T00:19:17.630Z,64.95
2023-03-03T00:21:49.563Z,64.72
2023-03-03T00:24:37.839Z,64.43
2023-03-03T00:27:36.010Z,64.36
2023-03-03T00:30:03.931Z,64.15
2023-03-03T00:32:56.759Z,64.27
2023-03-03T00:35:35.849Z,64.58
2023-03-03T00:38:17.991Z,64.54
2023-03-03T00:40:46.520Z,64.39
2023-03-03T00:43:36.861Z,64.33
2023-03-03T00:46:03.972Z,64.08
2023-03-03T00:48:44.592Z,64.26
2023-03-03T00:51:33.073Z,64.21
2023-03-03T00:53:59.962Z,64.14
2023-03-03T00:56:27.783Z,64.21
2023-03-03T00:58:54.716Z,63.89
2023-03-03T01:01:21.958Z,63.83
2023-03-03T01:03:48.762Z,63.52
2023-03-03T01:06:16.898Z,63.37
2023-03-03T01:08:43.738Z,63.42
2023-03-03T01:11:17.623Z,63.15
2023-03-03T01:13:47.783Z,63.03
2023-03-03T01:16:14.665Z,63.28
2023-03-03T01:18:44.571Z,63.46
2023-03-03T01:21:12.018Z,63.53
2023-03-03T01:23:39.130Z,63.30
2023-03-03T01:26:06.573Z,63.22
2023-03-03T01:28:34.431Z,63.24
2023-03-03T01:31:04.818Z,63.62
2023-03-03T01:33:33.742Z,63.53
2023-03-03T01:36:01.242Z,63.49
2023-03-03T01:38:28.155Z,63.47
2023-03-03T01:40:59.971Z,63.55
2023-03-03T01:43:29.502Z,63.20
2023-03-03T01:45:59.294Z,63.33
2023-03-03T01:48:34.803Z,63.11
2023-03-03T01:51:25.636Z,62.83
2023-03-03T01:54:05.774Z,63.04
2023-03-03T01:56:33.296Z,63.16
2023-03-03T01:59:18.817Z,63.25
2023-03-03T02:01:47.721Z,63.31
2023-03-03T02:04:15.524Z,63.45
2023-03-03T02:06:49.765Z,62.93
2023-03-03T02:09:43.811Z,63.21
2023-03-03T02:12:15.567Z,63.54
2023-03-03T02:14:42.505Z,63.67
2023-03-03T02:17:09.350Z,64.70
2023-03-03T02:19:50.926Z,64.08
2023-03-03T02:22:27.218Z,64.20
2023-03-03T02:25:00.821Z,64.16
2023-03-03T02:27:31.604Z,63.92
2023-03-03T02:29:58.708Z,63.87
2023-03-03T02:32:25.599Z,64.08
2023-03-03T02:34:53.152Z,63.72
2023-03-03T02:37:21.013Z,63.90
2023-03-03T02:39:48.193Z,63.81
2023-03-03T02:42:27.891Z,63.83
2023-03-03T02:44:54.714Z,63.72
2023-03-03T02:47:21.546Z,63.79
2023-03-03T02:49:48.356Z,63.86
2023-03-03T02:52:18.035Z,63.78
2023-03-03T02:54:44.890Z,63.90
2023-03-03T02:57:11.697Z,63.89
2023-03-03T02:59:38.576Z,63.79
2023-03-03T03:02:07.285Z,63.48
2023-03-03T03:04:34.463Z,63.52
2023-03-03T03:07:01.440Z,63.85
2023-03-03T03:09:28.592Z,63.86
2023-03-03T03:11:55.571Z,63.65
2023-03-03T03:14:23.874Z,63.66
2023-03-03T03:16:50.799Z,62.93
2023-03-03T03:19:17.617Z,63.68
2023-03-03T03:21:44.500Z,63.44
2023-03-03T03:24:11.420Z,63.51
2023-03-03T03:26:38.249Z,63.34
2023-03-03T03:29:05.131Z,63.63
2023-03-03T03:31:32.066Z,63.71
2023-03-03T03:34:00.602Z,63.49
2023-03-03T03:36:28.265Z,63.48
2023-03-03T03:38:55.311Z,63.04
2023-03-03T03:41:22.111Z,63.20
2023-03-03T03:43:48.987Z,63.51
2023-03-03T03:46:16.167Z,63.51
2023-03-03T03:48:43.013Z,63.22
2023-03-03T03:51:12.586Z,63.47
2023-03-03T03:53:39.530Z,63.47
2023-03-03T03:56:06.930Z,63.30
2023-03-03T03:58:33.836Z,63.54
2023-03-03T04:01:08.633Z,63.65
2023-03-03T04:03:35.940Z,63.00
2023-03-03T04:06:02.766Z,63.12
2023-03-03T04:08:29.602Z,63.36
2023-03-03T04:10:56.773Z,63.47
2023-03-03T04:13:23.794Z,63.13
2023-03-03T04:15:50.661Z,62.89
2023-03-03T04:18:17.538Z,62.90
2023-03-03T04:20:44.347Z,62.89
2023-03-03T04:23:11.415Z,62.64
2023-03-03T04:25:38.363Z,62.74
2023-03-03T04:28:05.836Z,62.42
2023-03-03T04:30:33.029Z,62.50
2023-03-03T04:32:59.873Z,62.71
2023-03-03T04:35:26.892Z,62.84
2023-03-03T04:37:54.054Z,62.54
2023-03-03T04:40:20.948Z,62.52
2023-03-03T04:42:47.848Z,63.05
2023-03-03T04:45:14.796Z,62.90
2023-03-03T04:47:41.736Z,63.62
2023-03-03T04:50:10.227Z,63.32
2023-03-03T04:52:37.365Z,63.58
2023-03-03T04:55:04.987Z,63.83
2023-03-03T04:57:31.982Z,63.49
2023-03-03T04:59:58.832Z,63.65
2023-03-03T05:02:25.696Z,63.39
2023-03-03T05:04:52.819Z,63.15
2023-03-03T05:07:20.821Z,63.27
2023-03-03T05:09:47.663Z,63.17
2023-03-03T05:12:14.532Z,63.33
2023-03-03T05:14:41.612Z,62.79
2023-03-03T05:17:09.173Z,62.98
2023-03-03T05:19:36.045Z,63.27
2023-03-03T05:22:02.962Z,63.05
2023-03-03T05:24:30.382Z,62.55
2023-03-03T05:26:57.269Z,62.97
2023-03-03T05:29:24.215Z,63.16
2023-03-03T05:31:51.236Z,63.25
2023-03-03T05:34:18.096Z,63.11
2023-03-03T05:36:45.036Z,62.92
2023-03-03T05:39:11.944Z,62.85
2023-03-03T05:41:38.964Z,62.99
2023-03-03T05:44:05.849Z,62.80
2023-03-03T05:46:32.732Z,63.06
2023-03-03T05:48:59.604Z,63.04
2023-03-03T05:51:26.666Z,63.16
2023-03-03T05:53:56.325Z,63.14
2023-03-03T05:56:23.353Z,63.09
2023-03-03T05:58:52.358Z,63.14
2023-03-03T06:01:19.302Z,63.35
2023-03-03T06:03:46.170Z,63.21
2023-03-03T06:06:14.120Z,63.07
2023-03-03T06:08:40.951Z,62.99
2023-03-03T06:11:07.810Z,63.06
2023-03-03T06:13:34.644Z,63.06
2023-03-03T06:16:01.570Z,62.78
2023-03-03T06:18:28.416Z,62.50
2023-03-03T06:20:55.974Z,62.91
2023-03-03T06:23:22.897Z,63.09
2023-03-03T06:25:49.777Z,63.44
2023-03-03T06:28:16.605Z,63.18
2023-03-03T06:30:43.610Z,63.43
2023-03-03T06:33:10.680Z,65.08
2023-03-03T06:35:37.649Z,64.86
2023-03-03T06:38:04.499Z,64.34
2023-03-03T06:40:31.336Z,64.50
2023-03-03T06:42:58.130Z,64.23
2023-03-03T06:45:25.025Z,63.31
2023-03-03T06:47:51.931Z,63.25
2023-03-03T06:50:21.017Z,63.75
2023-03-03T06:52:48.057Z,63.54
2023-03-03T06:55:23.274Z,63.60
2023-03-03T06:57:50.128Z,64.15
2023-03-03T07:00:30.855Z,63.97
2023-03-03T07:03:11.606Z,62.94
2023-03-03T07:05:38.897Z,62.71
2023-03-03T07:08:22.796Z,62.66
2023-03-03T07:10:52.007Z,62.69
2023-03-03T07:13:18.674Z,62.34
2023-03-03T07:15:47.225Z,62.25
2023-03-03T07:18:35.057Z,62.15
2023-03-03T07:21:22.365Z,63.18
2023-03-03T07:23:52.615Z,63.12
2023-03-03T07:26:32.882Z,63.51
2023-03-03T07:29:26.337Z,62.12
2023-03-03T07:31:57.257Z,62.49
2023-03-03T07:34:46.626Z,62.10
2023-03-03T07:37:22.343Z,61.34
2023-03-03T07:39:50.783Z,61.26
2023-03-03T07:42:23.134Z,60.82
2023-03-03T07:44:56.743Z,60.72
2023-03-03T07:47:31.344Z,61.03
2023-03-03T07:50:01.630Z,61.09
2023-03-03T07:52:44.300Z,60.29
2023-03-03T07:55:36.425Z,59.47
2023-03-03T07:58:27.588Z,58.74
2023-03-03T08:01:31.747Z,60.41
2023-03-03T08:03:58.669Z,59.23
2023-03-03T08:06:34.976Z,57.11
2023-03-03T08:09:30.280Z,57.09
2023-03-03T08:12:24.972Z,57.97
2023-03-03T08:14:54.179Z,56.59
2023-03-03T08:17:24.396Z,55.70
2023-03-03T08:19:52.960Z,57.05
2023-03-03T08:22:31.908Z,57.10
2023-03-03T08:24:58.863Z,56.24
2023-03-03T08:27:25.708Z,54.93
2023-03-03T08:29:52.566Z,56.25
2023-03-03T08:32:19.789Z,58.15
2023-03-03T08:34:46.781Z,58.41
2023-03-03T08:37:13.699Z,57.75
2023-03-03T08:39:40.713Z,57.79
2023-03-03T08:42:07.660Z,57.54
2023-03-03T08:44:34.550Z,56.49
2023-03-03T08:47:01.403Z,56.71
2023-03-03T08:49:28.414Z,56.22
2023-03-03T08:51:55.595Z,55.64
2023-03-03T08:54:22.535Z,56.16
2023-03-03T08:56:50.168Z,55.25
2023-03-03T08:59:17.184Z,54.25
2023-03-03T09:01:45.516Z,53.45
2023-03-03T09:04:12.541Z,53.22
2023-03-03T09:06:39.913Z,55.91
2023-03-03T09:09:06.922Z,55.02
2023-03-03T09:11:34.140Z,55.58
2023-03-03T09:14:16.146Z,53.90
2023-03-03T09:16:52.066Z,52.65
2023-03-03T09:19:32.456Z,52.12
2023-03-03T09:22:24.639Z,52.37
2023-03-03T09:24:55.507Z,51.46
2023-03-03T09:27:35.349Z,52.90
2023-03-03T09:30:37.252Z,52.09
2023-03-03T09:33:35.974Z,51.49
2023-03-03T09:36:37.386Z,50.17
2023-03-03T09:39:25.772Z,52.67
2023-03-03T09:42:42.925Z,51.83
2023-03-03T09:45:50.351Z,51.09
2023-03-03T09:48:42.081Z,51.32
2023-03-03T09:51:40.484Z,49.60
2023-03-03T09:54:26.347Z,48.89
2023-03-03T09:57:16.809Z,49.26
2023-03-03T09:59:57.549Z,49.53
2023-03-03T10:02:47.729Z,49.47
2023-03-03T10:05:54.719Z,48.59
2023-03-03T10:08:36.160Z,47.31
2023-03-03T10:11:17.160Z,51.18
2023-03-03T10:14:15.158Z,48.15
2023-03-03T10:16:57.699Z,48.97
2023-03-03T10:19:39.428Z,47.25
2023-03-03T10:22:15.168Z,47.72
2023-03-03T10:25:20.390Z,47.53
2023-03-03T10:28:18.342Z,48.76
2023-03-03T10:31:12.180Z,46.41
2023-03-03T10:34:32.605Z,50.21
2023-03-03T10:37:53.394Z,47.67
2023-03-03T10:40:50.227Z,44.77
2023-03-03T10:43:49.120Z,43.64
2023-03-03T10:46:53.002Z,42.44
2023-03-03T10:49:46.905Z,41.73
2023-03-03T10:52:34.052Z,43.02
2023-03-03T10:55:30.805Z,43.80
2023-03-03T10:58:43.771Z,45.44
2023-03-03T11:01:47.567Z,42.92
2023-03-03T11:04:38.537Z,43.46
2023-03-03T11:07:39.233Z,42.02
2023-03-03T11:10:30.201Z,41.99
2023-03-03T11:13:36.623Z,40.81
2023-03-03T11:16:14.901Z,41.60
2023-03-03T11:19:00.618Z,40.48
2023-03-03T11:21:43.068Z,39.38
2023-03-03T11:24:37.575Z,42.16
2023-03-03T11:27:31.525Z,39.75
2023-03-03T11:30:29.005Z,37.46
2023-03-03T11:33:07.406Z,36.15
2023-03-03T11:36:17.008Z,35.25
2023-03-03T11:39:19.073Z,39.70
2023-03-03T11:42:28.518Z,38.45
2023-03-03T11:45:13.859Z,38.34
2023-03-03T11:48:15.972Z,36.00
2023-03-03T11:51:07.461Z,40.05
2023-03-03T11:53:55.480Z,42.54
2023-03-03T11:56:48.888Z,40.25
2023-03-03T11:59:50.834Z,38.55
2023-03-03T12:02:47.156Z,36.64
2023-03-03T12:05:52.206Z,36.67
2023-03-03T12:08:56.866Z,34.93
2023-03-03T12:11:40.483Z,36.14
2023-03-03T12:14:43.954Z,37.99
2023-03-03T12:17:51.442Z,36.11
2023-03-03T12:20:42.849Z,34.74
2023-03-03T12:23:34.685Z,34.86
2023-03-03T12:26:13.186Z,34.37
2023-03-03T12:29:13.653Z,32.65
2023-03-03T12:31:53.468Z,33.03
2023-03-03T12:34:39.056Z,32.35
2023-03-03T12:37:45.209Z,31.42
2023-03-03T12:40:29.113Z,31.26
2023-03-03T12:43:44.054Z,29.96
2023-03-03T12:46:52.577Z,26.93
2023-03-03T12:49:20.109Z,26.96
2023-03-03T12:52:31.341Z,27.21
2023-03-03T12:55:06.038Z,26.86
2023-03-03T12:57:45.180Z,28.17
2023-03-03T13:00:14.885Z,27.91
2023-03-03T13:03:05.460Z,27.44
2023-03-03T13:06:11.810Z,27.28
2023-03-03T13:09:21.067Z,30.24
2023-03-03T13:12:14.425Z,30.81
2023-03-03T13:15:16.296Z,28.78
2023-03-03T13:18:19.793Z,27.42
2023-03-03T13:20:59.161Z,26.61
2023-03-03T13:23:39.346Z,28.39
2023-03-03T13:26:25.784Z,28.69
2023-03-03T13:28:57.119Z,26.20
2023-03-03T13:31:55.589Z,26.07
2023-03-03T13:34:41.891Z,26.28
2023-03-03T13:37:20.897Z,27.18
2023-03-03T13:40:01.932Z,27.71
2023-03-03T13:42:45.042Z,25.90
2023-03-03T13:45:49.630Z,29.90
2023-03-03T13:48:50.531Z,27.18
2023-03-03T13:52:05.744Z,29.11
2023-03-03T13:55:20.476Z,30.64
2023-03-03T13:58:05.794Z,27.87
2023-03-03T14:01:00.847Z,26.45
2023-03-03T14:03:58.362Z,28.47
2023-03-03T14:06:30.127Z,27.20
2023-03-03T14:09:33.502Z,28.25
2023-03-03T14:12:14.952Z,26.98
2023-03-03T14:15:05.870Z,26.51
2023-03-03T14:17:43.802Z,27.52
2023-03-03T14:20:28.336Z,27.02
2023-03-03T14:23:09.539Z,27.23
2023-03-03T14:26:04.284Z,26.77
2023-03-03T14:28:49.756Z,26.78
2023-03-03T14:31:26.840Z,28.26
2023-03-03T14:34:14.977Z,27.45
2023-03-03T14:36:43.885Z,28.19
2023-03-03T14:39:32.999Z,28.13
2023-03-03T14:42:01.619Z,28.98
2023-03-03T14:44:55.412Z,30.05
2023-03-03T14:47:27.861Z,29.02
2023-03-03T14:50:00.700Z,28.30
2023-03-03T14:52:30.553Z,27.19
2023-03-03T14:55:01.422Z,29.63
2023-03-03T14:57:46.793Z,30.23
2023-03-03T15:00:13.812Z,29.22
2023-03-03T15:02:44.754Z,29.78
2023-03-03T15:05:30.440Z,29.54
2023-03-03T15:08:06.380Z,30.22
2023-03-03T15:10:43.099Z,29.88
2023-03-03T15:13:22.152Z,27.59
2023-03-03T15:16:05.550Z,28.93
2023-03-03T15:18:33.804Z,29.39
2023-03-03T15:21:34.378Z,29.90
2023-03-03T15:24:34.954Z,29.91
2023-03-03T15:27:11.143Z,30.21
2023-03-03T15:29:50.896Z,30.14
2023-03-03T15:32:51.599Z,30.44
2023-03-03T15:35:49.070Z,32.59
2023-03-03T15:38:27.152Z,34.17
2023-03-03T15:41:45.912Z,36.26
2023-03-03T15:44:46.302Z,38.97
2023-03-03T15:48:20.790Z,39.97
2023-03-03T15:51:12.775Z,41.35
2023-03-03T15:54:06.893Z,41.96
2023-03-03T15:56:58.368Z,43.47
2023-03-03T15:59:57.336Z,44.17
2023-03-03T16:02:49.700Z,43.97
2023-03-03T16:05:34.546Z,44.14
2023-03-03T16:08:20.721Z,44.30
2023-03-03T16:11:26.326Z,44.60
2023-03-03T16:14:30.161Z,44.51
2023-03-03T16:17:10.562Z,44.81
2023-03-03T16:20:23.309Z,45.23
2023-03-03T16:23:22.292Z,45.52
2023-03-03T16:26:29.789Z,46.32
2023-03-03T16:29:39.396Z,45.96
2023-03-03T16:32:13.947Z,47.38
2023-03-03T16:34:55.733Z,47.56
2023-03-03T16:37:29.351Z,48.43
2023-03-03T16:40:24.181Z,48.83
2023-03-03T16:43:41.940Z,48.82
2023-03-03T16:46:34.848Z,49.33
2023-03-03T16:49:16.514Z,49.41
2023-03-03T16:52:12.318Z,50.03
2023-03-03T16:54:55.788Z,50.13
2023-03-03T16:57:45.828Z,50.64
2023-03-03T17:00:21.306Z,50.65
2023-03-03T17:02:54.279Z,51.14
2023-03-03T17:05:52.125Z,51.04
2023-03-03T17:08:38.856Z,51.00
2023-03-03T17:11:37.479Z,51.66
2023-03-03T17:14:16.017Z,51.76
2023-03-03T17:17:14.613Z,52.20
2023-03-03T17:20:33.488Z,52.56
2023-03-03T17:23:40.129Z,52.71
2023-03-03T17:26:31.071Z,52.63
2023-03-03T17:29:38.207Z,53.27
2023-03-03T17:32:42.956Z,53.46
2023-03-03T17:35:48.567Z,53.39
2023-03-03T17:38:33.344Z,53.72
2023-03-03T17:41:41.910Z,53.98
2023-03-03T17:44:50.113Z,53.81
2023-03-03T17:47:42.777Z,54.39
2023-03-03T17:50:21.531Z,53.96
2023-03-03T17:53:19.713Z,54.19
2023-03-03T17:56:13.609Z,53.86
2023-03-03T17:59:25.594Z,54.10
2023-03-03T18:02:30.366Z,54.35
2023-03-03T18:05:28.764Z,54.50
2023-03-03T18:08:26.453Z,54.38
2023-03-03T18:11:15.103Z,54.51
2023-03-03T18:14:13.982Z,55.16
2023-03-03T18:17:11.689Z,55.60
2023-03-03T18:20:28.157Z,55.87
2023-03-03T18:22:55.874Z,55.83
2023-03-03T18:25:55.099Z,56.11
2023-03-03T18:28:24.778Z,56.04
2023-03-03T18:30:59.947Z,56.04
2023-03-03T18:34:02.920Z,56.21
2023-03-03T18:36:31.827Z,56.54
2023-03-03T18:39:01.391Z,56.59
2023-03-03T18:41:33.459Z,56.75
2023-03-03T18:44:32.280Z,56.79
2023-03-03T18:46:59.225Z,57.21
2023-03-03T18:49:52.780Z,57.74
2023-03-03T18:52:30.148Z,57.73
2023-03-03T18:55:23.018Z,57.72
2023-03-03T18:58:14.927Z,57.61
2023-03-03T19:00:59.843Z,57.90
2023-03-03T19:03:31.818Z,58.02
2023-03-03T19:06:00.344Z,57.82
2023-03-03T19:08:53.962Z,57.91
2023-03-03T19:11:40.496Z,57.83
2023-03-03T19:14:33.702Z,57.91
2023-03-03T19:17:23.678Z,57.78
2023-03-03T19:20:14.269Z,57.68
2023-03-03T19:23:07.234Z,57.28
2023-03-03T19:25:34.189Z,57.53
2023-03-03T19:28:45.553Z,57.47
2023-03-03T19:31:17.273Z,57.71
2023-03-03T19:34:06.287Z,58.86
2023-03-03T19:36:55.376Z,59.15
2023-03-03T19:39:49.229Z,59.14
2023-03-03T19:43:01.744Z,59.31
2023-03-03T19:45:47.170Z,59.41
2023-03-03T19:48:27.601Z,59.35
2023-03-03T19:51:00.243Z,59.16
2023-03-03T19:54:06.603Z,59.18
2023-03-03T19:56:49.021Z,58.75
2023-03-03T19:59:36.933Z,59.26
2023-03-03T20:02:24.982Z,59.25
2023-03-03T20:05:29.665Z,59.33
2023-03-03T20:08:28.265Z,59.25
2023-03-03T20:11:25.121Z,59.76
2023-03-03T20:14:26.867Z,59.54
2023-03-03T20:17:05.300Z,59.81
2023-03-03T20:20:03.815Z,59.75
2023-03-03T20:22:58.277Z,60.06
2023-03-03T20:25:46.961Z,60.51
2023-03-03T20:28:58.057Z,60.18
2023-03-03T20:31:49.314Z,60.35
2023-03-03T20:34:57.406Z,60.26
2023-03-03T20:37:44.499Z,60.36
2023-03-03T20:40:11.262Z,60.50
2023-03-03T20:43:13.032Z,60.14
2023-03-03T20:46:07.821Z,60.50
2023-03-03T20:48:58.496Z,60.45
2023-03-03T20:51:43.069Z,61.14
2023-03-03T20:54:30.411Z,61.04
2023-03-03T20:57:21.104Z,61.16
2023-03-03T21:00:18.318Z,61.41
2023-03-03T21:03:02.246Z,61.37
2023-03-03T21:05:29.745Z,61.67
2023-03-03T21:08:03.155Z,61.12
2023-03-03T21:10:36.160Z,60.48
2023-03-03T21:13:40.834Z,60.73
2023-03-03T21:16:25.593Z,60.92
2023-03-03T21:19:11.241Z,60.78
2023-03-03T21:21:46.918Z,61.23
2023-03-03T21:24:19.586Z,61.36
2023-03-03T21:26:46.493Z,61.47
2023-03-03T21:30:02.496Z,61.86
2023-03-03T21:32:40.239Z,61.48
2023-03-03T21:35:12.945Z,61.53
2023-03-03T21:37:50.147Z,61.29
2023-03-03T21:40:25.306Z,61.52
2023-03-03T21:42:58.816Z,61.47
2023-03-03T21:45:26.866Z,61.62
2023-03-03T21:47:59.274Z,61.57
2023-03-03T21:50:31.185Z,61.80
2023-03-03T21:52:58.080Z,62.35
2023-03-03T21:55:26.643Z,62.36
2023-03-03T21:57:53.670Z,62.38
2023-03-03T22:00:21.094Z,62.41
2023-03-03T22:02:47.921Z,62.21
2023-03-03T22:05:14.890Z,62.54
2023-03-03T22:07:41.811Z,62.45
2023-03-03T22:10:09.892Z,62.67
2023-03-03T22:12:36.814Z,62.75
2023-03-03T22:15:04.278Z,62.83
2023-03-03T22:17:31.136Z,62.63
2023-03-03T22:19:57.953Z,62.79
2023-03-03T22:22:24.876Z,63.05
2023-03-03T22:24:51.777Z,63.23
2023-03-03T22:27:18.669Z,62.91
2023-03-03T22:29:45.512Z,63.32
2023-03-03T22:32:12.373Z,63.12
2023-03-03T22:34:39.499Z,63.34
2023-03-03T22:37:06.295Z,63.01
2023-03-03T22:39:33.124Z,63.43
2023-03-03T22:42:00.217Z,63.05
2023-03-03T22:44:27.048Z,63.09
2023-03-03T22:46:53.928Z,62.94
2023-03-03T22:49:20.797Z,63.02
2023-03-03T22:51:47.628Z,63.26
2023-03-03T22:54:14.492Z,61.85
2023-03-03T22:56:41.371Z,61.15
2023-03-03T22:59:08.298Z,60.54
2023-03-03T23:01:35.139Z,60.62
2023-03-03T23:04:02.060Z,61.47
2023-03-03T23:06:28.931Z,62.22
2023-03-03T23:08:55.770Z,62.49
2023-03-03T23:11:24.516Z,62.71
2023-03-03T23:13:51.338Z,63.33
2023-03-03T23:16:18.224Z,63.29
2023-03-03T23:18:45.320Z,63.65
2023-03-03T23:21:12.172Z,63.33
2023-03-03T23:23:39.070Z,63.41
2023-03-03T23:26:05.936Z,63.49
2023-03-03T23:28:32.864Z,63.07
2023-03-03T23:30:59.865Z,62.62
2023-03-03T23:33:26.784Z,62.38
2023-03-03T23:35:53.706Z,63.15
2023-03-03T23:38:20.624Z,63.06
2023-03-03T23:40:47.456Z,63.43
2023-03-03T23:43:15.006Z,63.24
2023-03-03T23:45:41.837Z,63.55
2023-03-03T23:48:08.917Z,63.44
2023-03-03T23:50:39.117Z,63.78
2023-03-03T23:53:07.362Z,63.52
2023-03-03T23:55:36.014Z,63.94
2023-03-03T23:58:03.063Z,63.94
